createdAt,value
2019-04-26T02:31:01.031Z,97035.72
2019-04-26T02:33:02.638Z,97034.23
2019-04-26T02:35:04.265Z,97031.13
2019-04-26T02:37:05.864Z,97018.91
2019-04-26T02:39:07.504Z,97024.52
2019-04-26T02:41:09.824Z,97014.59
2019-04-26T02:43:11.428Z,97008.41
2019-04-26T02:45:36.005Z,97015.30
2019-04-26T02:47:38.488Z,97011.16
2019-04-26T02:49:39.537Z,97001.59
2019-04-26T02:51:41.138Z,97001.33
2019-04-26T02:53:42.724Z,96999.25
2019-04-26T02:55:44.365Z,97000.30
2019-04-26T02:57:45.956Z,97000.12
2019-04-26T02:59:47.602Z,97002.25
2019-04-26T03:01:49.188Z,97005.41
2019-04-26T03:03:53.565Z,96998.11
2019-04-26T03:05:52.450Z,96992.35
2019-04-26T03:07:54.064Z,96989.91
2019-04-26T03:09:55.724Z,96987.34
2019-04-26T03:11:57.336Z,96994.05
2019-04-26T03:14:01.448Z,96991.47
2019-04-26T03:16:07.748Z,96986.02
2019-04-26T03:18:14.961Z,96997.09
2019-04-26T03:20:16.613Z,96999.27
2019-04-26T03:22:18.207Z,96998.16
2019-04-26T03:24:19.817Z,97001.16
2019-04-26T03:26:21.558Z,96995.88
2019-04-26T03:28:23.102Z,96997.52
2019-04-26T03:30:24.737Z,96994.45
2019-04-26T03:32:26.356Z,96991.61
2019-04-26T03:34:27.957Z,96992.42
2019-04-26T03:36:29.570Z,96998.37
2019-04-26T03:38:46.084Z,96994.54
2019-04-26T03:40:47.723Z,96995.53
2019-04-26T03:42:49.345Z,97000.20
2019-04-26T03:44:50.959Z,96999.78
2019-04-26T03:46:52.544Z,97001.41
2019-04-26T03:48:54.139Z,96995.81
2019-04-26T03:50:55.730Z,96998.72
2019-04-26T03:52:57.320Z,96998.73
2019-04-26T03:54:58.933Z,96995.34
2019-04-26T03:57:13.580Z,96995.49
2019-04-26T03:59:27.932Z,96992.64
2019-04-26T04:01:35.410Z,96997.37
2019-04-26T04:03:41.617Z,96990.71
2019-04-26T04:05:41.515Z,96993.28
2019-04-26T04:07:47.289Z,96994.58
2019-04-26T04:09:44.756Z,96991.59
2019-04-26T04:11:46.700Z,96990.83
2019-04-26T04:13:51.018Z,96987.85
2019-04-26T04:15:48.558Z,96989.22
2019-04-26T04:17:50.268Z,96984.14
2019-04-26T04:19:52.565Z,96988.81
2019-04-26T04:21:54.149Z,96985.04
2019-04-26T04:23:55.740Z,96987.72
2019-04-26T04:25:57.364Z,96984.71
2019-04-26T04:27:58.941Z,96974.56
2019-04-26T04:30:00.680Z,96983.38
2019-04-26T04:32:02.289Z,96982.79
2019-04-26T04:34:03.883Z,96981.81
2019-04-26T04:36:05.493Z,96982.09
2019-04-26T04:38:09.474Z,96979.98
2019-04-26T04:40:08.869Z,96982.95
2019-04-26T04:42:25.346Z,96983.00
2019-04-26T04:44:26.952Z,96983.85
2019-04-26T04:46:29.201Z,96979.91
2019-04-26T04:48:30.786Z,96975.20
2019-04-26T04:50:32.387Z,96978.17
2019-04-26T04:52:34.022Z,96974.78
2019-04-26T04:54:35.599Z,96976.50
2019-04-26T04:56:37.244Z,96977.36
2019-04-26T04:58:38.840Z,96975.31
2019-04-26T05:00:55.294Z,96980.02
2019-04-26T05:02:57.848Z,96979.68
2019-04-26T05:05:03.930Z,96981.93
2019-04-26T05:07:07.418Z,96982.43
2019-04-26T05:09:09.039Z,96983.63
2019-04-26T05:11:10.708Z,96982.21
2019-04-26T05:13:12.294Z,96981.23
2019-04-26T05:15:13.880Z,96979.45
2019-04-26T05:17:15.520Z,96979.01
2019-04-26T05:19:22.687Z,96981.89
2019-04-26T05:21:24.308Z,96983.11
2019-04-26T05:23:25.946Z,96984.33
2019-04-26T05:25:33.160Z,96987.69
2019-04-26T05:27:38.213Z,96986.14
2019-04-26T05:29:41.588Z,96993.53
2019-04-26T05:31:44.643Z,96987.12
2019-04-26T05:33:44.824Z,96990.91
2019-04-26T05:35:49.091Z,96994.34
2019-04-26T05:37:50.988Z,96988.42
2019-04-26T05:39:51.530Z,96992.33
2019-04-26T05:41:53.620Z,96988.17
2019-04-26T05:43:55.999Z,96989.11
2019-04-26T05:45:58.665Z,96990.45
2019-04-26T05:48:11.214Z,96992.64
2019-04-26T05:50:07.220Z,96992.73
2019-04-26T05:52:12.215Z,96995.75
2019-04-26T05:54:11.018Z,96986.48
2019-04-26T05:56:13.128Z,96993.75
2019-04-26T05:58:14.703Z,96993.40
2019-04-26T06:00:17.923Z,96990.92
2019-04-26T06:02:19.499Z,96983.34
2019-04-26T06:04:25.987Z,96985.52
2019-04-26T06:06:28.038Z,96985.57
2019-04-26T06:08:46.398Z,96982.69
2019-04-26T06:10:48.005Z,96983.22
2019-04-26T06:12:51.052Z,96982.83
2019-04-26T06:15:02.044Z,96989.67
2019-04-26T06:17:10.200Z,96986.34
2019-04-26T06:19:11.802Z,96983.89
2019-04-26T06:21:13.604Z,96982.28
2019-04-26T06:23:15.192Z,96977.25
2019-04-26T06:25:17.512Z,96987.06
2019-04-26T06:27:20.957Z,96976.53
2019-04-26T06:29:22.580Z,96974.44
2019-04-26T06:31:24.154Z,96978.35
2019-04-26T06:33:25.761Z,96977.09
2019-04-26T06:35:27.390Z,96974.62
2019-04-26T06:37:29.450Z,96974.69
2019-04-26T06:39:31.058Z,96977.70
2019-04-26T06:41:32.704Z,96973.94
2019-04-26T06:43:34.315Z,96972.25
2019-04-26T06:45:50.864Z,96972.69
2019-04-26T06:47:52.459Z,96977.83
2019-04-26T06:50:10.035Z,96972.80
2019-04-26T06:52:10.575Z,96974.07
2019-04-26T06:54:12.183Z,96976.64
2019-04-26T06:56:19.637Z,96976.70
2019-04-26T06:58:21.240Z,96977.57
2019-04-26T07:00:22.842Z,96982.26
2019-04-26T07:02:24.492Z,96977.27
2019-04-26T07:04:26.128Z,96985.73
2019-04-26T07:06:34.800Z,96924.59
2019-04-26T07:08:29.392Z,96976.84
2019-04-26T07:10:30.976Z,96979.39
2019-04-26T07:12:34.079Z,96982.00
2019-04-26T07:14:35.691Z,96986.69
2019-04-26T07:16:37.308Z,96980.34
2019-04-26T07:18:38.928Z,96988.00
2019-04-26T07:20:42.314Z,96978.70
2019-04-26T07:22:54.717Z,96992.27
2019-04-26T07:24:56.305Z,96997.44
2019-04-26T07:26:57.888Z,96988.92
2019-04-26T07:29:01.159Z,96997.45
2019-04-26T07:31:02.561Z,97000.44
2019-04-26T07:33:02.772Z,96999.22
2019-04-26T07:35:05.125Z,96997.52
2019-04-26T07:37:07.031Z,96997.09
2019-04-26T07:39:18.506Z,97002.89
2019-04-26T07:41:13.124Z,97001.89
2019-04-26T07:43:24.532Z,96999.48
2019-04-26T07:45:31.783Z,97003.78
2019-04-26T07:47:33.372Z,97005.89
2019-04-26T07:49:34.992Z,97007.62
2019-04-26T07:51:36.576Z,97008.65
2019-04-26T07:53:38.184Z,97002.89
2019-04-26T07:55:39.787Z,97004.03
2019-04-26T07:57:41.376Z,97006.03
2019-04-26T07:59:42.967Z,97006.30
2019-04-26T08:01:46.201Z,97003.27
2019-04-26T08:03:47.820Z,97005.67
2019-04-26T08:05:49.556Z,97002.22
2019-04-26T08:07:51.168Z,97002.56
2019-04-26T08:09:59.920Z,96996.08
2019-04-26T08:11:54.464Z,96997.34
2019-04-26T08:13:56.080Z,96999.02
2019-04-26T08:16:04.915Z,96999.80
2019-04-26T08:18:05.254Z,96993.36
2019-04-26T08:20:09.253Z,96997.98
2019-04-26T08:22:18.005Z,96996.66
2019-04-26T08:24:14.843Z,96997.94
2019-04-26T08:26:16.456Z,96994.05
2019-04-26T08:28:18.044Z,96995.30
2019-04-26T08:30:22.636Z,96999.14
2019-04-26T08:32:21.271Z,96993.59
2019-04-26T08:34:28.961Z,96998.28
2019-04-26T08:36:27.161Z,96991.17
2019-04-26T08:38:26.286Z,96989.53
2019-04-26T08:40:30.988Z,96991.25
2019-04-26T08:42:31.149Z,96995.64
2019-04-26T08:44:38.566Z,96992.98
2019-04-26T08:46:45.827Z,96997.84
2019-04-26T08:48:48.240Z,96998.58
2019-04-26T08:50:50.303Z,96994.55
2019-04-26T08:52:51.891Z,96997.03
2019-04-26T08:54:53.476Z,96997.53
2019-04-26T08:56:55.120Z,96997.41
2019-04-26T08:58:56.736Z,97004.81
2019-04-26T09:00:59.206Z,97002.27
2019-04-26T09:03:11.301Z,97004.80
2019-04-26T09:05:24.284Z,96958.19
2019-04-26T09:07:30.734Z,97009.58
2019-04-26T09:09:32.489Z,97010.88
2019-04-26T09:11:35.019Z,97001.89
2019-04-26T09:13:35.651Z,97002.36
2019-04-26T09:15:37.300Z,97001.78
2019-04-26T09:17:38.907Z,96995.59
2019-04-26T09:19:40.498Z,96991.05
2019-04-26T09:21:42.139Z,96998.92
2019-04-26T09:23:51.841Z,97008.38
2019-04-26T09:25:59.001Z,96997.67
2019-04-26T09:27:58.918Z,96998.95
2019-04-26T09:30:05.022Z,97001.52
2019-04-26T09:32:07.994Z,97002.88
2019-04-26T09:34:15.343Z,96999.17
2019-04-26T09:36:18.188Z,97002.27
2019-04-26T09:38:18.612Z,97001.80
2019-04-26T09:40:22.702Z,97000.45
2019-04-26T09:42:28.412Z,97001.67
2019-04-26T09:44:29.985Z,97002.22
2019-04-26T09:46:48.479Z,97000.66
2019-04-26T09:49:08.542Z,96999.69
2019-04-26T09:51:09.497Z,96993.21
2019-04-26T09:53:11.152Z,96985.34
2019-04-26T09:55:12.743Z,96990.17
2019-04-26T09:57:14.405Z,96993.70
2019-04-26T09:59:16.019Z,96994.91
2019-04-26T10:01:19.728Z,96988.16
2019-04-26T10:03:19.304Z,96994.07
2019-04-26T10:05:22.275Z,96995.55
2019-04-26T10:07:22.605Z,96993.05
2019-04-26T10:09:24.243Z,96996.26
2019-04-26T10:11:25.835Z,96991.81
2019-04-26T10:13:29.340Z,96980.64
2019-04-26T10:15:50.667Z,96990.77
2019-04-26T10:17:52.270Z,96982.69
2019-04-26T10:19:53.854Z,96980.72
2019-04-26T10:21:55.576Z,96988.22
2019-04-26T10:23:57.184Z,96985.76
2019-04-26T10:25:58.812Z,96933.16
2019-04-26T10:28:00.420Z,96984.16
2019-04-26T10:30:07.783Z,96988.94
2019-04-26T10:32:03.717Z,96984.92
2019-04-26T10:34:07.781Z,96980.93
2019-04-26T10:36:06.971Z,96981.23
2019-04-26T10:38:08.596Z,96981.14
2019-04-26T10:40:10.184Z,96986.69
2019-04-26T10:42:11.797Z,96981.23
2019-04-26T10:44:13.406Z,96975.73
2019-04-26T10:46:15.052Z,96977.03
2019-04-26T10:48:16.644Z,96977.05
2019-04-26T10:50:18.252Z,96972.30
2019-04-26T10:52:23.386Z,96959.45
2019-04-26T10:54:24.993Z,96970.59
2019-04-26T10:56:29.163Z,96972.09
2019-04-26T10:58:36.216Z,96967.95
2019-04-26T11:00:36.830Z,96962.01
2019-04-26T11:02:38.442Z,96965.00
2019-04-26T11:04:41.445Z,96972.64
2019-04-26T11:06:41.688Z,96971.77
2019-04-26T11:08:43.304Z,96968.81
2019-04-26T11:10:48.885Z,96971.39
2019-04-26T11:12:46.569Z,96975.33
2019-04-26T11:14:48.204Z,96970.70
2019-04-26T11:16:49.794Z,96969.33
2019-04-26T11:18:51.385Z,96966.70
2019-04-26T11:20:52.972Z,96960.71
2019-04-26T11:22:54.606Z,96966.30
2019-04-26T11:24:56.218Z,96963.29
2019-04-26T11:26:57.833Z,96966.61
2019-04-26T11:28:59.444Z,96960.13
2019-04-26T11:31:01.036Z,96965.55
2019-04-26T11:33:02.624Z,96956.61
2019-04-26T11:35:04.268Z,96955.06
2019-04-26T11:37:05.880Z,96955.53
2019-04-26T11:39:07.568Z,96946.80
2019-04-26T11:41:09.322Z,96951.77
2019-04-26T11:43:10.748Z,96948.27
2019-04-26T11:45:14.741Z,96946.33
2019-04-26T11:47:14.042Z,96944.95
2019-04-26T11:49:15.632Z,96954.36
2019-04-26T11:51:17.225Z,96953.08
2019-04-26T11:53:18.828Z,96955.94
2019-04-26T11:55:20.436Z,96946.90
2019-04-26T11:57:22.080Z,96946.53
2019-04-26T11:59:26.966Z,96946.12
2019-04-26T12:01:25.340Z,96954.73
2019-04-26T12:03:26.915Z,96952.98
2019-04-26T12:05:43.420Z,96947.53
2019-04-26T12:07:48.856Z,96945.47
2019-04-26T12:09:50.953Z,96945.50
2019-04-26T12:12:04.038Z,96948.47
2019-04-26T12:13:55.308Z,96948.41
2019-04-26T12:15:55.830Z,96945.13
2019-04-26T12:17:58.690Z,96947.33
2019-04-26T12:19:59.092Z,96940.97
2019-04-26T12:22:04.285Z,96938.41
2019-04-26T12:24:02.402Z,96938.93
2019-04-26T12:26:04.097Z,96936.40
2019-04-26T12:28:06.343Z,96939.48
2019-04-26T12:30:07.474Z,96941.26
2019-04-26T12:32:09.090Z,96940.50
2019-04-26T12:34:14.172Z,96940.54
2019-04-26T12:36:13.343Z,96941.89
2019-04-26T12:38:14.030Z,96934.25
2019-04-26T12:40:15.616Z,96937.62
2019-04-26T12:42:17.220Z,96938.94
2019-04-26T12:44:18.811Z,96935.53
2019-04-26T12:46:33.184Z,96932.55
2019-04-26T12:48:34.836Z,96933.39
2019-04-26T12:50:37.757Z,96935.92
2019-04-26T12:52:38.052Z,96931.77
2019-04-26T12:54:42.987Z,96928.00
2019-04-26T12:56:41.328Z,96931.88
2019-04-26T12:58:45.638Z,96927.19
2019-04-26T13:00:53.790Z,96928.06
2019-04-26T13:02:46.284Z,96929.64
2019-04-26T13:04:47.877Z,96931.58
2019-04-26T13:06:54.316Z,96884.08
2019-04-26T13:08:56.111Z,96926.26
2019-04-26T13:10:58.212Z,96921.57
2019-04-26T13:12:59.804Z,96933.52
2019-04-26T13:15:05.287Z,96933.94
2019-04-26T13:17:10.292Z,96928.89
2019-04-26T13:19:11.918Z,96929.78
2019-04-26T13:21:13.513Z,96932.00
2019-04-26T13:23:15.147Z,96928.20
2019-04-26T13:25:26.199Z,96928.28
2019-04-26T13:27:18.423Z,96929.64
2019-04-26T13:29:20.208Z,96933.67
2019-04-26T13:31:21.849Z,96930.97
2019-04-26T13:33:27.396Z,96924.64
2019-04-26T13:35:25.212Z,96930.55
2019-04-26T13:37:26.787Z,96922.42
2019-04-26T13:39:28.412Z,96918.92
2019-04-26T13:41:30.028Z,96923.56
2019-04-26T13:43:31.639Z,96921.45
2019-04-26T13:45:33.950Z,96921.47
2019-04-26T13:47:41.495Z,96928.81
2019-04-26T13:49:48.210Z,96929.00
2019-04-26T13:51:46.432Z,96937.22
2019-04-26T13:53:48.019Z,96930.52
2019-04-26T13:55:49.655Z,96929.74
2019-04-26T13:57:51.231Z,96935.39
2019-04-26T13:59:52.826Z,96925.27
2019-04-26T14:01:54.412Z,96931.58
2019-04-26T14:03:56.094Z,96928.98
2019-04-26T14:05:57.804Z,96929.42
2019-04-26T14:07:59.412Z,96932.91
2019-04-26T14:10:01.056Z,96932.53
2019-04-26T14:12:17.526Z,96931.30
2019-04-26T14:14:04.324Z,96936.47
2019-04-26T14:16:05.907Z,96939.00
2019-04-26T14:18:07.552Z,96947.09
2019-04-26T14:20:09.171Z,96950.09
2019-04-26T14:22:10.792Z,96949.23
2019-04-26T14:24:19.585Z,96934.95
2019-04-26T14:26:20.527Z,96947.27
2019-04-26T14:28:23.947Z,96949.92
2019-04-26T14:30:23.806Z,96945.29
2019-04-26T14:32:25.398Z,96897.09
2019-04-26T14:34:27.012Z,96943.65
2019-04-26T14:36:28.629Z,96936.45
2019-04-26T14:38:39.343Z,96934.76
2019-04-26T14:40:31.948Z,96942.05
2019-04-26T14:42:38.156Z,96946.73
2019-04-26T14:44:35.184Z,96947.20
2019-04-26T14:46:48.166Z,96939.56
2019-04-26T14:48:40.540Z,96937.89
2019-04-26T14:50:40.255Z,96936.75
2019-04-26T14:52:41.844Z,96936.75
2019-04-26T14:54:46.045Z,96933.36
2019-04-26T14:56:52.036Z,96939.34
2019-04-26T14:58:47.022Z,96938.98
2019-04-26T15:01:03.070Z,96929.70
2019-04-26T15:03:20.908Z,96931.11
2019-04-26T15:05:25.404Z,96934.01
2019-04-26T15:07:28.266Z,96930.23
2019-04-26T15:09:33.145Z,96936.19
2019-04-26T15:11:32.283Z,96934.94
2019-04-26T15:13:36.246Z,96949.83
2019-04-26T15:15:34.641Z,96949.85
2019-04-26T15:17:35.280Z,96955.44
2019-04-26T15:19:40.218Z,96949.09
2019-04-26T15:21:38.581Z,96946.19
2019-04-26T15:23:40.223Z,96952.14
2019-04-26T15:25:48.100Z,96952.58
2019-04-26T15:27:44.191Z,96944.95
2019-04-26T15:29:45.180Z,96945.39
2019-04-26T15:31:46.804Z,96950.11
2019-04-26T15:33:49.973Z,96944.63
2019-04-26T15:35:50.094Z,96943.34
2019-04-26T15:37:53.333Z,96951.00
2019-04-26T15:39:55.147Z,96946.66
2019-04-26T15:42:04.985Z,96945.00
2019-04-26T15:44:24.847Z,96951.75
2019-04-26T15:46:48.677Z,96949.17
2019-04-26T15:49:05.170Z,96950.45
2019-04-26T15:51:05.630Z,96949.22
2019-04-26T15:53:12.752Z,96952.26
2019-04-26T15:55:08.939Z,96946.48
2019-04-26T15:57:12.091Z,96960.02
2019-04-26T15:59:12.798Z,96953.66
2019-04-26T16:01:13.976Z,96944.45
2019-04-26T16:03:15.551Z,96893.97
2019-04-26T16:05:17.138Z,96932.09
2019-04-26T16:07:27.243Z,96930.00
2019-04-26T16:09:21.272Z,96933.85
2019-04-26T16:11:22.032Z,96936.42
2019-04-26T16:13:24.162Z,96942.65
2019-04-26T16:15:25.256Z,96943.73
2019-04-26T16:17:26.948Z,96940.93
2019-04-26T16:19:28.650Z,96935.08
2019-04-26T16:21:30.303Z,96935.02
2019-04-26T16:23:39.413Z,96931.82
2019-04-26T16:25:34.430Z,96924.20
2019-04-26T16:27:35.227Z,96930.55
2019-04-26T16:29:58.295Z,96930.89
2019-04-26T16:31:58.253Z,96942.71
2019-04-26T16:34:10.515Z,96937.59
2019-04-26T16:36:06.272Z,96934.38
2019-04-26T16:38:18.805Z,96931.18
2019-04-26T16:40:14.287Z,96928.84
2019-04-26T16:42:15.897Z,96935.88
2019-04-26T16:44:19.257Z,96927.73
2019-04-26T16:46:20.361Z,96927.57
2019-04-26T16:48:22.244Z,96932.06
2019-04-26T16:50:31.233Z,96938.95
2019-04-26T16:52:24.225Z,96931.66
2019-04-26T16:54:26.840Z,96932.11
2019-04-26T16:56:28.343Z,96939.53
2019-04-26T16:58:30.891Z,96934.56
2019-04-26T17:00:50.120Z,96944.97
2019-04-26T17:02:36.782Z,96942.78
2019-04-26T17:04:36.266Z,96944.90
2019-04-26T17:06:44.352Z,96946.02
2019-04-26T17:08:42.887Z,96939.16
2019-04-26T17:10:40.059Z,96945.94
2019-04-26T17:12:42.271Z,96941.12
2019-04-26T17:14:47.742Z,96950.58
2019-04-26T17:16:45.005Z,96950.46
2019-04-26T17:18:46.620Z,96934.18
2019-04-26T17:20:48.356Z,96959.52
2019-04-26T17:22:59.631Z,96961.03
2019-04-26T17:24:58.940Z,96957.08
2019-04-26T17:27:01.148Z,96957.85
2019-04-26T17:29:02.735Z,96950.67
2019-04-26T17:31:04.416Z,96948.30
2019-04-26T17:33:06.115Z,96943.16
2019-04-26T17:35:07.797Z,96961.84
2019-04-26T17:37:12.768Z,96971.02
2019-04-26T17:39:16.961Z,96976.75
2019-04-26T17:41:13.819Z,96978.47
2019-04-26T17:43:14.490Z,96979.13
2019-04-26T17:45:16.090Z,96982.33
2019-04-26T17:47:20.156Z,96987.49
2019-04-26T17:49:21.429Z,96987.43
2019-04-26T17:51:23.275Z,96989.70
2019-04-26T17:53:28.759Z,96987.61
2019-04-26T17:55:25.832Z,96994.25
2019-04-26T17:57:34.870Z,97005.97
2019-04-26T17:59:34.690Z,97010.36
2019-04-26T18:01:42.847Z,97019.99
2019-04-26T18:03:33.201Z,96951.55
2019-04-26T18:05:49.985Z,97038.95
2019-04-26T18:07:42.905Z,97029.49
2019-04-26T18:09:43.981Z,97026.34
2019-04-26T18:11:41.130Z,97024.91
2019-04-26T18:13:41.507Z,97048.03
2019-04-26T18:15:45.147Z,97042.54
2019-04-26T18:17:59.670Z,97056.70
2019-04-26T18:20:05.185Z,97066.13
2019-04-26T18:22:04.733Z,97072.16
2019-04-26T18:24:06.355Z,97076.98
2019-04-26T18:26:07.964Z,97087.20
2019-04-26T18:28:14.673Z,97089.21
2019-04-26T18:30:13.613Z,97084.22
2019-04-26T18:32:13.232Z,97083.77
2019-04-26T18:34:14.841Z,97091.03
2019-04-26T18:36:16.441Z,97098.94
2019-04-26T18:38:18.980Z,97107.09
2019-04-26T18:40:21.459Z,97104.19
2019-04-26T18:42:22.389Z,97103.05
2019-04-26T18:44:35.830Z,97113.14
2019-04-26T18:46:26.204Z,97106.78
2019-04-26T18:48:27.792Z,97103.55
2019-04-26T18:50:32.721Z,97093.97
2019-04-26T18:52:31.047Z,97103.16
2019-04-26T18:54:37.256Z,97093.81
2019-04-26T18:56:40.436Z,97100.20
2019-04-26T18:58:40.524Z,97115.59
2019-04-26T19:00:43.681Z,97112.80
2019-04-26T19:02:43.803Z,97123.27
2019-04-26T19:04:48.088Z,97128.70
2019-04-26T19:06:47.194Z,97136.44
2019-04-26T19:08:52.229Z,97136.73
2019-04-26T19:11:00.514Z,97153.22
2019-04-26T19:12:56.434Z,97161.55
2019-04-26T19:15:11.332Z,97153.41
2019-04-26T19:17:15.092Z,97161.10
2019-04-26T19:19:31.568Z,97157.09
2019-04-26T19:21:39.549Z,97160.56
2019-04-26T19:23:37.573Z,97160.69
2019-04-26T19:25:41.239Z,97162.03
2019-04-26T19:27:48.217Z,97175.06
2019-04-26T19:29:52.408Z,97172.69
2019-04-26T19:31:56.468Z,97170.31
2019-04-26T19:33:56.069Z,97173.47
2019-04-26T19:35:57.354Z,97178.17
2019-04-26T19:37:58.963Z,97171.03
2019-04-26T19:40:02.873Z,97180.61
2019-04-26T19:42:02.554Z,97184.34
2019-04-26T19:44:03.956Z,97198.52
2019-04-26T19:46:07.388Z,97200.53
2019-04-26T19:48:19.167Z,97215.94
2019-04-26T19:50:22.181Z,97214.20
2019-04-26T19:52:39.567Z,97190.73
2019-04-26T19:54:55.197Z,97225.72
2019-04-26T19:57:01.018Z,97239.67
2019-04-26T19:58:59.320Z,97244.33
2019-04-26T20:01:01.979Z,97254.78
2019-04-26T20:03:02.592Z,97252.67
2019-04-26T20:05:06.508Z,97248.08
2019-04-26T20:07:05.870Z,97257.66
2019-04-26T20:09:07.470Z,97267.81
2019-04-26T20:11:12.892Z,97265.23
2019-04-26T20:13:15.220Z,97273.17
2019-04-26T20:15:25.127Z,97268.66
2019-04-26T20:17:19.750Z,97265.81
2019-04-26T20:19:17.922Z,97261.77
2019-04-26T20:21:17.326Z,97278.08
2019-04-26T20:23:19.702Z,97285.53
2019-04-26T20:25:22.242Z,97290.64
2019-04-26T20:27:25.232Z,97307.19
2019-04-26T20:29:23.908Z,97290.84
2019-04-26T20:31:47.843Z,97300.55
2019-04-26T20:33:47.976Z,97304.45
2019-04-26T20:35:49.571Z,97305.26
2019-04-26T20:37:52.073Z,97299.17
2019-04-26T20:40:15.406Z,97295.63
2019-04-26T20:42:01.154Z,97301.25
2019-04-26T20:44:04.913Z,97303.64
2019-04-26T20:46:13.209Z,97306.09
2019-04-26T20:47:59.718Z,97303.39
2019-04-26T20:50:03.035Z,97304.42
2019-04-26T20:52:02.967Z,97301.36
2019-04-26T20:54:04.575Z,97290.08
2019-04-26T20:56:09.953Z,97279.73
2019-04-26T20:58:08.733Z,97276.97
